createdAt,value
2023-04-22T00:01:52.425Z,2.35
2023-04-22T00:04:21.564Z,2.38
2023-04-22T00:06:49.930Z,2.10
2023-04-22T00:09:18.109Z,1.95
2023-04-22T00:11:46.330Z,1.90
2023-04-22T00:14:14.753Z,1.70
2023-04-22T00:16:43.132Z,1.90
2023-04-22T00:19:12.779Z,2.05
2023-04-22T00:21:41.002Z,1.90
2023-04-22T00:24:09.371Z,2.15
2023-04-22T00:26:37.612Z,2.15
2023-04-22T00:29:05.804Z,1.92
2023-04-22T00:31:34.132Z,2.58
2023-04-22T00:34:02.460Z,2.15
2023-04-22T00:36:32.423Z,1.80
2023-04-22T00:39:01.916Z,2.15
2023-04-22T00:41:31.109Z,1.70
2023-04-22T00:44:01.545Z,2.15
2023-04-22T00:46:30.200Z,2.25
2023-04-22T00:48:59.063Z,2.35
2023-04-22T00:51:27.970Z,2.47
2023-04-22T00:53:57.502Z,2.65
2023-04-22T00:56:27.731Z,2.50
2023-04-22T00:58:56.451Z,2.40
2023-04-22T01:01:26.027Z,2.55
2023-04-22T01:03:54.824Z,2.50
2023-04-22T01:06:26.573Z,2.83
2023-04-22T01:08:55.184Z,2.72
2023-04-22T01:11:25.081Z,3.20
2023-04-22T01:13:53.576Z,3.25
2023-04-22T01:16:22.547Z,3.05
2023-04-22T01:18:50.960Z,2.75
2023-04-22T01:21:19.499Z,3.13
2023-04-22T01:23:49.556Z,3.10
2023-04-22T01:26:17.865Z,2.78
2023-04-22T01:28:46.565Z,3.15
2023-04-22T01:31:15.063Z,2.90
2023-04-22T01:33:44.252Z,3.15
2023-04-22T01:36:13.339Z,3.22
2023-04-22T01:38:41.811Z,2.95
2023-04-22T01:41:11.396Z,2.85
2023-04-22T01:43:40.356Z,2.63
2023-04-22T01:46:09.744Z,3.58
2023-04-22T01:48:39.056Z,3.67
2023-04-22T01:51:07.309Z,3.70
2023-04-22T01:53:35.494Z,3.78
2023-04-22T01:56:04.206Z,3.40
2023-04-22T01:58:35.787Z,3.78
2023-04-22T02:01:04.078Z,3.35
2023-04-22T02:03:32.425Z,3.95
2023-04-22T02:06:00.717Z,4.05
2023-04-22T02:08:29.009Z,3.55
2023-04-22T02:10:58.240Z,4.25
2023-04-22T02:13:26.592Z,4.07
2023-04-22T02:15:56.185Z,3.70
2023-04-22T02:18:24.435Z,4.03
2023-04-22T02:20:52.629Z,3.08
2023-04-22T02:23:21.051Z,3.53
2023-04-22T02:25:52.847Z,4.22
2023-04-22T02:28:21.237Z,4.35
2023-04-22T02:30:49.485Z,4.68
2023-04-22T02:33:19.104Z,4.35
2023-04-22T02:35:47.627Z,4.20
2023-04-22T02:38:15.864Z,4.88
2023-04-22T02:40:44.222Z,5.10
2023-04-22T02:43:12.464Z,4.85
2023-04-22T02:45:40.937Z,4.78
2023-04-22T02:48:09.195Z,4.75
2023-04-22T02:50:38.764Z,4.28
2023-04-22T02:53:06.944Z,3.88
2023-04-22T02:55:35.101Z,4.57
2023-04-22T02:58:03.361Z,4.78
2023-04-22T03:00:31.652Z,4.50
2023-04-22T03:03:00.068Z,5.25
2023-04-22T03:05:28.768Z,4.75
2023-04-22T03:07:58.302Z,5.57
2023-04-22T03:10:26.517Z,5.82
2023-04-22T03:12:54.686Z,5.40
2023-04-22T03:15:22.994Z,5.28
2023-04-22T03:17:51.657Z,5.15
2023-04-22T03:20:20.622Z,5.35
2023-04-22T03:22:48.845Z,4.60
2023-04-22T03:25:18.448Z,5.07
2023-04-22T03:27:46.902Z,5.03
2023-04-22T03:30:15.438Z,4.68
2023-04-22T03:32:43.737Z,4.85
2023-04-22T03:35:12.518Z,5.32
2023-04-22T03:37:40.955Z,4.65
2023-04-22T03:40:13.510Z,5.18
2023-04-22T03:42:43.588Z,5.38
2023-04-22T03:45:12.529Z,4.80
2023-04-22T03:47:40.756Z,5.10
2023-04-22T03:50:09.754Z,4.38
2023-04-22T03:52:37.934Z,5.57
2023-04-22T03:55:07.222Z,5.57
2023-04-22T03:57:35.817Z,5.68
2023-04-22T04:00:06.859Z,5.45
2023-04-22T04:05:03.599Z,4.60
2023-04-22T04:07:32.061Z,5.03
2023-04-22T04:10:00.252Z,5.35
2023-04-22T04:12:28.442Z,5.60
2023-04-22T04:14:56.605Z,5.68
2023-04-22T04:17:26.318Z,5.88
2023-04-22T04:19:56.155Z,5.55
2023-04-22T04:22:24.657Z,5.35
2023-04-22T04:24:55.865Z,6.00
2023-04-22T04:27:24.627Z,5.55
2023-04-22T04:29:52.846Z,5.47
2023-04-22T04:32:21.773Z,6.90
2023-04-22T04:34:52.632Z,5.47
2023-04-22T04:37:22.361Z,6.18
2023-04-22T04:39:50.570Z,5.22
2023-04-22T04:42:19.892Z,5.55
2023-04-22T04:44:48.686Z,5.55
2023-04-22T04:47:16.928Z,5.70
2023-04-22T04:49:46.197Z,5.40
2023-04-22T04:52:15.772Z,5.60
2023-04-22T04:54:43.990Z,6.50
2023-04-22T04:57:12.164Z,5.03
2023-04-22T04:59:40.548Z,6.22
2023-04-22T05:02:09.184Z,6.60
2023-04-22T05:04:37.864Z,5.78
2023-04-22T05:07:06.545Z,6.25
2023-04-22T05:09:37.719Z,5.43
2023-04-22T05:12:06.661Z,5.53
2023-04-22T05:14:34.884Z,5.88
2023-04-22T05:17:03.741Z,5.40
2023-04-22T05:19:31.940Z,6.18
2023-04-22T05:22:00.175Z,5.22
2023-04-22T05:24:28.384Z,5.90
2023-04-22T05:26:58.414Z,5.72
2023-04-22T05:29:26.686Z,4.93
2023-04-22T05:31:54.924Z,6.35
2023-04-22T05:34:23.189Z,5.35
2023-04-22T05:36:51.382Z,5.65
2023-04-22T05:39:19.996Z,4.53
2023-04-22T05:41:48.410Z,5.75
2023-04-22T05:44:18.512Z,4.95
2023-04-22T05:46:46.793Z,5.30
2023-04-22T05:49:14.983Z,5.50
2023-04-22T05:51:43.666Z,5.07
2023-04-22T05:54:11.874Z,5.80
2023-04-22T05:56:40.169Z,4.95
2023-04-22T05:59:08.519Z,5.90
2023-04-22T06:01:38.814Z,6.10
2023-04-22T06:04:07.221Z,5.40
2023-04-22T06:06:35.724Z,5.65
2023-04-22T06:09:04.028Z,5.32
2023-04-22T06:11:32.190Z,5.18
2023-04-22T06:14:00.432Z,5.18
2023-04-22T06:16:29.535Z,5.60
2023-04-22T06:18:59.142Z,5.50
2023-04-22T06:21:27.337Z,5.50
2023-04-22T06:23:56.054Z,5.13
2023-04-22T06:26:24.418Z,5.55
2023-04-22T06:28:52.690Z,5.15
2023-04-22T06:31:21.247Z,5.00
2023-04-22T06:33:49.797Z,5.60
2023-04-22T06:36:19.487Z,5.53
2023-04-22T06:38:47.738Z,5.15
2023-04-22T06:41:15.927Z,5.28
2023-04-22T06:43:44.141Z,5.40
2023-04-22T06:46:12.336Z,5.20
2023-04-22T06:48:40.695Z,4.63
2023-04-22T06:51:08.871Z,4.88
2023-04-22T06:53:38.413Z,5.07
2023-04-22T06:56:07.685Z,4.50
2023-04-22T06:58:35.959Z,3.95
2023-04-22T07:01:04.317Z,3.92
2023-04-22T07:03:32.792Z,20.90
2023-04-22T07:06:01.241Z,8.95
2023-04-22T07:08:30.792Z,12.00
2023-04-22T07:11:00.408Z,3.75
2023-04-22T07:13:29.135Z,3.80
2023-04-22T07:15:57.406Z,3.88
2023-04-22T07:18:25.898Z,3.50
2023-04-22T07:20:54.124Z,3.65
2023-04-22T07:23:22.836Z,2.72
2023-04-22T07:25:51.094Z,2.70
2023-04-22T07:28:20.726Z,2.83
2023-04-22T07:30:48.973Z,3.47
2023-04-22T07:33:17.146Z,5.88
2023-04-22T07:35:45.533Z,3.63
2023-04-22T07:38:14.713Z,3.25
2023-04-22T07:40:43.054Z,3.10
2023-04-22T07:43:11.308Z,2.53
2023-04-22T07:45:40.929Z,2.97
2023-04-22T07:48:09.272Z,3.25
2023-04-22T07:50:38.879Z,2.90
2023-04-22T07:53:07.294Z,2.47
2023-04-22T07:55:35.511Z,3.30
2023-04-22T07:58:06.425Z,3.17
2023-04-22T08:03:05.529Z,2.38
2023-04-22T08:05:33.864Z,2.40
2023-04-22T08:08:02.199Z,2.50
2023-04-22T08:10:30.419Z,2.47
2023-04-22T08:12:58.764Z,2.30
2023-04-22T08:15:27.018Z,2.50
2023-04-22T08:17:55.283Z,2.17
2023-04-22T08:20:25.648Z,2.28
2023-04-22T08:23:00.230Z,1.98
2023-04-22T08:25:28.601Z,2.00
2023-04-22T08:27:56.873Z,2.08
2023-04-22T08:30:25.186Z,2.15
2023-04-22T08:32:56.503Z,1.98
2023-04-22T08:35:26.318Z,2.05
2023-04-22T08:37:54.929Z,2.17
2023-04-22T08:40:23.652Z,1.80
2023-04-22T08:42:53.111Z,2.30
2023-04-22T08:45:22.444Z,2.15
2023-04-22T08:47:51.190Z,2.20
2023-04-22T08:50:22.435Z,1.98
2023-04-22T08:52:52.146Z,2.25
2023-04-22T08:55:20.939Z,1.90
2023-04-22T08:57:50.309Z,1.90
2023-04-22T09:00:20.149Z,1.45
2023-04-22T09:02:50.563Z,1.42
2023-04-22T09:05:19.745Z,1.50
2023-04-22T09:07:48.033Z,1.40
2023-04-22T09:10:18.460Z,1.17
2023-04-22T09:12:47.973Z,1.33
2023-04-22T09:15:16.270Z,1.35
2023-04-22T09:17:45.438Z,1.60
2023-04-22T09:20:15.924Z,1.60
2023-04-22T09:22:47.040Z,1.40
2023-04-22T09:25:19.293Z,1.38
2023-04-22T09:27:51.984Z,1.38
2023-04-22T09:30:24.735Z,1.58
2023-04-22T09:32:57.743Z,1.77
2023-04-22T09:35:31.726Z,1.30
2023-04-22T09:38:01.643Z,1.45
2023-04-22T09:40:32.434Z,1.35
2023-04-22T09:43:03.486Z,1.70
2023-04-22T09:45:34.399Z,1.42
2023-04-22T09:50:33.038Z,1.67
2023-04-22T09:53:04.121Z,1.30
2023-04-22T09:55:36.601Z,1.30
2023-04-22T09:58:11.519Z,1.20
2023-04-22T10:00:45.349Z,1.42
2023-04-22T10:03:13.636Z,1.20
2023-04-22T10:05:42.545Z,1.50
2023-04-22T10:08:11.728Z,1.30
2023-04-22T10:10:41.934Z,1.58
2023-04-22T10:13:10.668Z,1.15
2023-04-22T10:15:41.945Z,1.52
2023-04-22T10:18:13.954Z,1.63
2023-04-22T10:20:43.883Z,1.10
2023-04-22T10:23:16.393Z,1.10
2023-04-22T10:25:51.421Z,1.27
2023-04-22T10:28:22.212Z,1.50
2023-04-22T10:30:51.288Z,1.20
2023-04-22T10:33:46.366Z,1.20
2023-04-22T10:36:19.296Z,1.00
2023-04-22T10:39:19.045Z,1.67
2023-04-22T10:41:55.679Z,1.20
2023-04-22T10:44:30.096Z,1.05
2023-04-22T10:47:02.301Z,1.40
2023-04-22T10:49:34.856Z,1.30
2023-04-22T10:52:05.056Z,1.20
2023-04-22T10:54:59.180Z,1.13
2023-04-22T10:57:37.876Z,1.10
2023-04-22T11:00:23.017Z,1.20
2023-04-22T11:02:56.001Z,1.00
2023-04-22T11:05:27.489Z,1.20
2023-04-22T11:07:59.891Z,0.95
2023-04-22T11:10:44.707Z,1.15
2023-04-22T11:13:16.665Z,1.40
2023-04-22T11:15:47.085Z,1.45
2023-04-22T11:18:19.855Z,1.02
2023-04-22T11:20:50.636Z,1.40
2023-04-22T11:25:49.244Z,1.42
2023-04-22T11:28:22.906Z,1.17
2023-04-22T11:30:51.938Z,1.08
2023-04-22T11:33:21.402Z,1.30
2023-04-22T11:35:51.641Z,1.25
2023-04-22T11:38:19.840Z,1.30
2023-04-22T11:40:48.894Z,1.42
2023-04-22T11:43:19.682Z,1.30
2023-04-22T11:45:47.984Z,1.13
2023-04-22T11:48:16.766Z,1.25
2023-04-22T11:50:45.333Z,1.00
2023-04-22T11:53:18.953Z,1.35
2023-04-22T11:55:50.972Z,1.20
2023-04-22T11:58:26.601Z,1.25
2023-04-22T12:00:56.703Z,1.20
2023-04-22T12:03:27.359Z,1.23
2023-04-22T12:05:58.426Z,1.05
2023-04-22T12:10:58.470Z,1.10
2023-04-22T12:13:30.407Z,1.08
2023-04-22T12:16:01.109Z,1.20
2023-04-22T12:18:32.806Z,1.30
2023-04-22T12:21:02.397Z,1.10
2023-04-22T12:23:30.674Z,1.40
2023-04-22T12:25:59.033Z,0.90
2023-04-22T12:28:28.638Z,1.20
2023-04-22T12:30:56.971Z,0.70
2023-04-22T12:33:25.179Z,0.88
2023-04-22T12:35:53.558Z,1.05
2023-04-22T12:38:21.739Z,0.80
2023-04-22T12:40:51.028Z,1.25
2023-04-22T12:43:19.432Z,0.98
2023-04-22T12:45:49.031Z,0.95
2023-04-22T12:48:17.624Z,1.35
2023-04-22T12:50:45.989Z,1.10
2023-04-22T12:53:14.268Z,0.98
2023-04-22T12:55:44.533Z,8.23
2023-04-22T12:58:14.222Z,1.38
2023-04-22T13:00:42.627Z,1.50
2023-04-22T13:03:12.503Z,3.72
2023-04-22T13:05:41.019Z,2.30
2023-04-22T13:08:09.419Z,1.48
2023-04-22T13:10:37.760Z,1.20
2023-04-22T13:13:16.995Z,1.20
2023-04-22T13:15:47.697Z,1.33
2023-04-22T13:18:18.129Z,1.48
2023-04-22T13:20:47.710Z,1.48
2023-04-22T13:23:17.046Z,1.30
2023-04-22T13:25:45.567Z,1.20
2023-04-22T13:28:13.889Z,1.30
2023-04-22T13:30:42.249Z,1.40
2023-04-22T13:33:10.499Z,1.08
2023-04-22T13:35:40.494Z,1.30
2023-04-22T13:38:09.093Z,1.33
2023-04-22T13:40:37.389Z,1.60
2023-04-22T13:43:06.167Z,1.55
2023-04-22T13:45:34.402Z,1.63
2023-04-22T13:48:02.759Z,1.50
2023-04-22T13:50:31.156Z,1.10
2023-04-22T13:53:00.775Z,1.30
2023-04-22T13:55:29.056Z,1.00
2023-04-22T13:57:57.333Z,1.40
2023-04-22T14:00:25.817Z,1.25
2023-04-22T14:02:54.094Z,0.77
2023-04-22T14:05:22.490Z,1.02
2023-04-22T14:07:50.770Z,1.40
2023-04-22T14:10:22.143Z,1.20
2023-04-22T14:12:50.793Z,1.60
2023-04-22T14:15:19.162Z,1.23
2023-04-22T14:17:49.431Z,1.75
2023-04-22T14:20:17.870Z,0.77
2023-04-22T14:22:46.286Z,1.05
2023-04-22T14:25:14.646Z,1.17
2023-04-22T14:27:44.214Z,0.70
2023-04-22T14:30:14.668Z,0.63
2023-04-22T14:32:44.051Z,0.45
2023-04-22T14:35:12.295Z,0.50
2023-04-22T14:37:41.756Z,1.75
2023-04-22T14:40:12.014Z,0.70
2023-04-22T14:42:40.889Z,0.82
2023-04-22T14:45:11.917Z,1.48
2023-04-22T14:50:09.136Z,1.55
2023-04-22T14:52:37.455Z,1.48
2023-04-22T14:55:19.461Z,0.93
2023-04-22T14:57:53.167Z,0.73
2023-04-22T15:00:22.921Z,0.83
2023-04-22T15:02:51.695Z,0.70
2023-04-22T15:05:20.666Z,0.63
2023-04-22T15:07:49.163Z,0.60
2023-04-22T15:10:17.829Z,0.70
2023-04-22T15:12:46.536Z,0.70
2023-04-22T15:15:16.246Z,0.77
2023-04-22T15:17:46.469Z,0.70
2023-04-22T15:20:16.097Z,0.80
2023-04-22T15:22:45.718Z,0.70
2023-04-22T15:25:14.729Z,0.80
2023-04-22T15:27:44.322Z,0.55
2023-04-22T15:30:12.825Z,0.80
2023-04-22T15:32:41.233Z,0.82
2023-04-22T15:35:12.004Z,0.80
2023-04-22T15:37:41.156Z,0.80
2023-04-22T15:40:10.700Z,0.80
2023-04-22T15:42:39.330Z,0.70
2023-04-22T15:45:09.282Z,0.80
2023-04-22T15:47:38.751Z,0.90
2023-04-22T15:50:11.381Z,0.80
2023-04-22T15:52:40.249Z,1.00
2023-04-22T15:55:09.486Z,0.73
2023-04-22T15:57:37.860Z,0.75
2023-04-22T16:00:12.694Z,0.68
2023-04-22T16:02:43.397Z,0.80
2023-04-22T16:05:14.122Z,0.60
2023-04-22T16:07:42.757Z,0.80
2023-04-22T16:10:13.395Z,0.70
2023-04-22T16:12:42.867Z,0.77
2023-04-22T16:15:12.354Z,0.60
2023-04-22T16:17:41.030Z,0.60
2023-04-22T16:20:13.202Z,0.70
2023-04-22T16:22:41.423Z,0.70
2023-04-22T16:25:10.953Z,0.90
2023-04-22T16:27:39.216Z,0.80
2023-04-22T16:30:09.187Z,1.00
2023-04-22T16:32:37.543Z,0.85
2023-04-22T16:35:07.051Z,0.80
2023-04-22T16:37:36.779Z,1.00
2023-04-22T16:40:06.685Z,0.65
2023-04-22T16:42:35.084Z,0.80
2023-04-22T16:45:03.285Z,0.90
2023-04-22T16:47:31.877Z,1.08
2023-04-22T16:50:00.187Z,0.82
2023-04-22T16:52:28.648Z,0.80
2023-04-22T16:54:58.520Z,1.00
2023-04-22T16:57:26.762Z,0.75
2023-04-22T16:59:54.940Z,0.75
2023-04-22T17:02:23.285Z,1.00
2023-04-22T17:04:51.656Z,0.82
2023-04-22T17:07:19.942Z,0.90
2023-04-22T17:09:48.929Z,1.00
2023-04-22T17:12:18.868Z,1.13
2023-04-22T17:14:47.170Z,1.08
2023-04-22T17:17:15.367Z,1.00
2023-04-22T17:19:44.071Z,1.20
2023-04-22T17:22:12.608Z,1.00
2023-04-22T17:24:41.599Z,1.10
2023-04-22T17:27:09.894Z,1.20
2023-04-22T17:29:39.687Z,1.25
2023-04-22T17:32:08.269Z,1.08
2023-04-22T17:34:36.603Z,2.70
2023-04-22T17:37:04.886Z,1.60
2023-04-22T17:39:33.260Z,1.65
2023-04-22T17:42:01.735Z,1.05
2023-04-22T17:44:31.053Z,1.20
2023-04-22T17:47:00.816Z,1.30
2023-04-22T17:49:29.621Z,1.45
2023-04-22T17:51:57.818Z,1.70
2023-04-22T17:54:26.204Z,1.23
2023-04-22T17:56:54.401Z,1.20
2023-04-22T17:59:22.686Z,1.50
2023-04-22T18:01:50.963Z,1.20
2023-04-22T18:04:21.107Z,1.25
2023-04-22T18:06:49.419Z,1.20
2023-04-22T18:09:17.720Z,1.52
2023-04-22T18:11:46.109Z,1.50
2023-04-22T18:14:14.403Z,1.30
2023-04-22T18:16:42.661Z,1.63
2023-04-22T18:19:10.916Z,1.58
2023-04-22T18:21:56.682Z,2.10
2023-04-22T18:24:28.398Z,2.65
2023-04-22T18:26:56.677Z,2.55
2023-04-22T18:29:24.931Z,2.88
2023-04-22T18:31:53.246Z,3.20
2023-04-22T18:34:21.612Z,3.88
2023-04-22T18:36:51.260Z,3.97
2023-04-22T18:39:19.806Z,3.60
2023-04-22T18:41:48.097Z,3.25
2023-04-22T18:44:16.404Z,3.60
2023-04-22T18:46:44.688Z,4.60
2023-04-22T18:49:12.900Z,3.55
2023-04-22T18:51:42.040Z,3.65
2023-04-22T18:54:11.897Z,4.65
2023-04-22T18:56:40.135Z,4.20
2023-04-22T18:59:08.657Z,4.20
2023-04-22T19:01:37.047Z,6.57
2023-04-22T19:04:07.530Z,4.38
2023-04-22T19:06:36.112Z,4.45
2023-04-22T19:09:05.272Z,5.22
2023-04-22T19:11:34.949Z,6.35
2023-04-22T19:14:03.276Z,11.70
2023-04-22T19:16:31.693Z,6.60
2023-04-22T19:18:59.949Z,6.57
2023-04-22T19:21:30.046Z,5.90
2023-04-22T19:23:58.866Z,5.65
2023-04-22T19:26:28.986Z,6.43
2023-04-22T19:28:58.751Z,6.57
2023-04-22T19:31:29.237Z,6.47
2023-04-22T19:33:57.568Z,6.70
2023-04-22T19:36:25.813Z,15.07
2023-04-22T19:38:54.101Z,7.60
2023-04-22T19:41:22.319Z,6.50
2023-04-22T19:43:50.839Z,6.55
2023-04-22T19:46:20.691Z,7.15
2023-04-22T19:48:50.128Z,6.28
2023-04-22T19:51:18.821Z,6.93
2023-04-22T19:53:47.472Z,7.32
2023-04-22T19:56:16.896Z,8.25
2023-04-22T19:58:45.651Z,7.32
2023-04-22T20:01:14.531Z,9.48
2023-04-22T20:03:45.196Z,7.22
2023-04-22T20:06:13.819Z,8.82
2023-04-22T20:08:43.842Z,7.43
2023-04-22T20:11:13.129Z,7.50
2023-04-22T20:13:42.284Z,7.45
2023-04-22T20:16:11.768Z,7.65
2023-04-22T20:18:40.462Z,8.02
2023-04-22T20:21:10.634Z,9.05
2023-04-22T20:23:41.009Z,8.23
2023-04-22T20:26:10.407Z,8.73
2023-04-22T20:28:46.039Z,8.25
2023-04-22T20:31:18.224Z,8.52
2023-04-22T20:33:46.795Z,7.55
2023-04-22T20:36:18.471Z,8.23
2023-04-22T20:38:48.857Z,8.32
2023-04-22T20:41:20.164Z,6.10
2023-04-22T20:43:48.430Z,8.35
2023-04-22T20:46:16.762Z,8.30
2023-04-22T20:48:45.075Z,8.80
2023-04-22T20:51:13.364Z,8.80
2023-04-22T20:53:43.386Z,8.63
2023-04-22T20:56:11.747Z,8.95
2023-04-22T20:58:40.054Z,8.68
2023-04-22T21:01:09.717Z,8.48
2023-04-22T21:03:40.348Z,9.07
2023-04-22T21:06:10.059Z,9.55
2023-04-22T21:08:40.433Z,9.35
2023-04-22T21:11:10.837Z,6.40
2023-04-22T21:13:39.788Z,9.43
2023-04-22T21:16:10.430Z,9.85
2023-04-22T21:18:41.745Z,9.32
2023-04-22T21:21:12.199Z,9.32
2023-04-22T21:23:42.215Z,7.20
2023-04-22T21:26:12.691Z,10.32
2023-04-22T21:28:41.738Z,10.10
2023-04-22T21:31:11.739Z,9.75
2023-04-22T21:33:40.325Z,10.35
2023-04-22T21:36:08.750Z,10.55
2023-04-22T21:38:37.213Z,10.45
2023-04-22T21:41:06.214Z,10.50
2023-04-22T21:43:35.930Z,11.35
2023-04-22T21:46:04.129Z,10.98
2023-04-22T21:48:32.549Z,11.18
2023-04-22T21:51:00.993Z,10.82
2023-04-22T21:53:29.560Z,11.52
2023-04-22T21:55:58.093Z,11.45
2023-04-22T21:58:26.454Z,11.88
2023-04-22T22:00:56.356Z,12.02
2023-04-22T22:03:24.942Z,11.95
2023-04-22T22:05:53.325Z,12.65
2023-04-22T22:08:21.628Z,13.23
2023-04-22T22:10:49.868Z,13.52
2023-04-22T22:13:18.177Z,12.70
2023-04-22T22:15:46.536Z,11.55
2023-04-22T22:18:16.322Z,12.35
2023-04-22T22:20:45.145Z,12.25
2023-04-22T22:23:13.459Z,12.40
2023-04-22T22:25:41.830Z,13.18
2023-04-22T22:28:10.054Z,11.82
2023-04-22T22:30:38.387Z,13.15
2023-04-22T22:33:07.006Z,12.32
2023-04-22T22:35:36.704Z,12.43
2023-04-22T22:38:05.014Z,13.10
2023-04-22T22:40:33.356Z,11.63
2023-04-22T22:43:01.556Z,11.88
2023-04-22T22:45:29.931Z,11.93
2023-04-22T22:47:58.305Z,12.68
2023-04-22T22:50:27.255Z,11.77
2023-04-22T22:52:56.886Z,13.30
2023-04-22T22:55:25.147Z,12.10
2023-04-22T22:57:53.359Z,12.40
2023-04-22T23:00:21.782Z,11.40
2023-04-22T23:02:50.131Z,12.57
2023-04-22T23:05:18.751Z,11.70
2023-04-22T23:07:46.987Z,12.60
2023-04-22T23:10:16.898Z,11.43
2023-04-22T23:12:45.254Z,11.38
2023-04-22T23:15:13.511Z,11.88
2023-04-22T23:17:41.891Z,11.77
2023-04-22T23:20:12.114Z,11.82
2023-04-22T23:22:41.103Z,7.90
2023-04-22T23:25:11.600Z,11.35
2023-04-22T23:27:42.840Z,11.02
2023-04-22T23:30:12.173Z,9.95
2023-04-22T23:32:42.169Z,10.25
2023-04-22T23:35:13.916Z,10.52
2023-04-22T23:37:45.736Z,9.48
2023-04-22T23:40:14.675Z,9.90
2023-04-22T23:42:44.422Z,9.63
2023-04-22T23:45:13.332Z,9.88
2023-04-22T23:47:42.040Z,10.13
2023-04-22T23:50:12.114Z,10.38
2023-04-22T23:52:42.656Z,9.00
2023-04-22T23:55:13.883Z,8.88
